»·PEaware :: N305EL KABQ-KTUS

N305EL :: KABQ-KTUS

FLIGHT INFORMATION

Flight Status: Arrived
Operator: Privately registered:
United States
More flights under this callsign
Pilot: Cullen C. (26241)
Aircraft: BEECH AIRCRAFT A90-E90 KING AIR
(BE9L)
More flights by this aircraft type
Origin: KABQ Albuquerque Intl Sunport
United States
Destination: KTUS Tucson Intl
United States
More flights between these airports :: More routes between these airports
Route: ABQ V611 TCS DMN SSO V16 TUS
File this flight plan on PilotEdge
Remarks:
Altitude:
(Current/Filed)
16,000ft
Speed:
(Current/Filed)
200kts
Departed: 26-Oct-20 07:51 AM
Arrived: 26-Oct-20 08:49 AM
Distance/Time
Traveled:
278nm/0:57
Distance/Time
To Go:
Arrived

Flight Plot

Page will automatically refresh every two minutes.

Flight plan parsing failed; only flown route is shown


Map Options




Map Legend


Flown Route
Filed Route
Departure Airport
Arrival Airport
Navaid (VOR, NDB)
Fix

Horizontal Profiles

Position Reports

Time Latitude Longitude Heading Altitude Ground
Speed
26-Oct-20 07:30 35.048245 -106.592656 176 5324ft 0kts
26-Oct-20 07:31 35.048245 -106.592656 176 5324ft 0kts
26-Oct-20 07:32 35.048245 -106.592656 176 5324ft 0kts
26-Oct-20 07:33 35.048245 -106.592656 176 5324ft 0kts
26-Oct-20 07:34 35.048245 -106.592656 176 5324ft 0kts
26-Oct-20 07:35 35.048245 -106.592656 176 5324ft 0kts
26-Oct-20 07:36 35.048245 -106.592656 176 5324ft 0kts
26-Oct-20 07:37 35.048245 -106.592656 176 5324ft 0kts
26-Oct-20 07:38 35.048245 -106.592656 176 5324ft 0kts
26-Oct-20 07:39 35.048245 -106.592656 176 5324ft 0kts
26-Oct-20 07:40 35.048245 -106.592656 176 5324ft 0kts
26-Oct-20 07:41 35.048245 -106.592656 175 5324ft 0kts
26-Oct-20 07:42 35.048245 -106.592656 175 5324ft 0kts
26-Oct-20 07:43 35.048245 -106.592656 176 5324ft 0kts
26-Oct-20 07:44 35.046768 -106.591705 102 5324ft 4kts
26-Oct-20 07:45 35.045853 -106.595481 270 5321ft 21kts
26-Oct-20 07:46 35.045775 -106.603616 271 5318ft 25kts
26-Oct-20 07:47 35.045598 -106.613721 253 5312ft 30kts
26-Oct-20 07:48 35.045361 -106.621354 198 5297ft 0kts
26-Oct-20 07:49 35.045361 -106.621354 198 5297ft 0kts
26-Oct-20 07:50 35.044310 -106.615839 89 5312ft 97kts
26-Oct-20 07:51 35.024203 -106.578984 177 6673ft 202kts
26-Oct-20 07:52 34.977896 -106.586822 177 7591ft 145kts
26-Oct-20 07:53 34.930439 -106.590595 178 9094ft 186kts
26-Oct-20 07:54 34.878845 -106.601397 199 10585ft 195kts
26-Oct-20 07:55 34.827594 -106.623748 202 12098ft 198kts
26-Oct-20 07:56 34.775708 -106.646292 202 13618ft 197kts
26-Oct-20 07:57 34.724729 -106.668325 203 15124ft 194kts
26-Oct-20 07:58 34.672640 -106.690856 203 15976ft 217kts
26-Oct-20 07:59 34.612374 -106.716860 202 15975ft 238kts
26-Oct-20 08:00 34.516037 -106.758292 203 15971ft 214kts
26-Oct-20 08:01 34.410447 -106.803624 203 15993ft 192kts
26-Oct-20 08:02 34.312495 -106.845326 202 16026ft 184kts
26-Oct-20 08:03 34.216371 -106.884990 202 16061ft 181kts
26-Oct-20 08:04 34.121956 -106.927001 202 16030ft 182kts
26-Oct-20 08:05 34.026111 -106.965766 203 16027ft 182kts
26-Oct-20 08:06 33.930230 -107.005616 204 16006ft 183kts
26-Oct-20 08:07 33.834502 -107.047401 215 15995ft 181kts
26-Oct-20 08:08 33.786506 -107.147139 240 16065ft 175kts
26-Oct-20 08:09 33.741410 -107.251267 245 16019ft 176kts
26-Oct-20 08:10 33.696701 -107.356029 241 16035ft 175kts
26-Oct-20 08:11 33.650556 -107.462702 242 16052ft 185kts
26-Oct-20 08:12 33.602372 -107.574805 243 16043ft 194kts
26-Oct-20 08:13 33.555421 -107.692756 243 16045ft 197kts
26-Oct-20 08:14 33.500876 -107.807287 242 16034ft 198kts
26-Oct-20 08:15 33.450618 -107.924878 241 16044ft 198kts
26-Oct-20 08:16 33.399741 -108.042127 242 16046ft 198kts
26-Oct-20 08:18 33.348495 -108.159467 242 16046ft 199kts
26-Oct-20 08:19 33.297203 -108.276523 242 16046ft 199kts
26-Oct-20 08:20 33.245714 -108.393565 242 16046ft 199kts
26-Oct-20 08:21 33.194040 -108.510678 242 16046ft 199kts
26-Oct-20 08:22 33.142409 -108.627309 242 16046ft 199kts
26-Oct-20 08:23 33.090516 -108.744142 241 16046ft 199kts
26-Oct-20 08:24 33.038430 -108.861028 241 16046ft 199kts
26-Oct-20 08:25 32.986292 -108.977653 241 16046ft 199kts
26-Oct-20 08:26 32.934148 -109.093903 241 16046ft 199kts
26-Oct-20 08:27 32.881810 -109.210219 241 16046ft 199kts
26-Oct-20 08:28 32.829194 -109.326768 241 16046ft 199kts
26-Oct-20 08:29 32.776792 -109.442478 241 16046ft 199kts
26-Oct-20 08:30 32.724097 -109.558454 241 16046ft 199kts
26-Oct-20 08:31 32.671119 -109.674701 241 16046ft 199kts
26-Oct-20 08:32 32.618143 -109.790535 241 16046ft 199kts
26-Oct-20 08:33 32.565239 -109.905877 241 16046ft 199kts
26-Oct-20 08:34 32.512053 -110.021426 241 16046ft 200kts
26-Oct-20 08:35 32.458726 -110.136947 241 16046ft 200kts
26-Oct-20 08:35 32.414252 -110.233005 241 16046ft 200kts
26-Oct-20 08:37 32.351653 -110.367785 241 16046ft 200kts
26-Oct-20 08:37 32.307117 -110.463379 241 16046ft 200kts
26-Oct-20 08:39 32.243593 -110.599290 241 13787ft 202kts
26-Oct-20 08:39 32.198362 -110.695758 240 12120ft 200kts
26-Oct-20 08:40 32.158754 -110.780047 240 10637ft 191kts
26-Oct-20 08:41 32.119956 -110.805293 169 9630ft 180kts
26-Oct-20 08:42 32.071352 -110.794691 169 8628ft 176kts
26-Oct-20 08:43 32.024154 -110.791948 219 7627ft 174kts
26-Oct-20 08:44 32.007725 -110.835724 319 6630ft 172kts
26-Oct-20 08:45 32.044243 -110.855357 326 5562ft 117kts
26-Oct-20 08:46 32.068352 -110.884325 313 4313ft 130kts
26-Oct-20 08:47 32.096578 -110.916361 315 2811ft 127kts
26-Oct-20 08:48 32.111339 -110.932149 40 2619ft 0kts
26-Oct-20 08:49 32.113170 -110.933426 312 2614ft 22kts
26-Oct-20 08:50 32.118763 -110.939951 318 2595ft 21kts
26-Oct-20 08:51 32.123267 -110.945249 315 2578ft 30kts
26-Oct-20 08:52 32.125581 -110.945536 354 2572ft 9kts
26-Oct-20 08:53 32.126409 -110.945994 311 2570ft 0kts
26-Oct-20 08:54 32.126411 -110.945996 311 2570ft 0kts

Navigation Log

Ident Type
Flight plan parsing failed, navigation log unavailable